createdAt,value
2023-03-05T00:00:22.538Z,100143.68
2023-03-05T00:03:13.741Z,100137.27
2023-03-05T00:05:47.336Z,100142.28
2023-03-05T00:08:26.889Z,100149.02
2023-03-05T00:11:07.995Z,100141.70
2023-03-05T00:13:39.483Z,100140.58
2023-03-05T00:16:18.295Z,100140.30
2023-03-05T00:18:50.141Z,100137.15
2023-03-05T00:21:45.039Z,100130.38
2023-03-05T00:24:19.427Z,100130.61
2023-03-05T00:26:48.411Z,100125.69
2023-03-05T00:29:23.497Z,100122.50
2023-03-05T00:32:03.003Z,100122.17
2023-03-05T00:34:35.938Z,100118.21
2023-03-05T00:37:13.732Z,100114.65
2023-03-05T00:39:44.592Z,100109.02
2023-03-05T00:42:15.646Z,100109.74
2023-03-05T00:44:47.330Z,100113.19
2023-03-05T00:47:20.169Z,100108.44
2023-03-05T00:49:49.218Z,100105.23
2023-03-05T00:52:23.901Z,100103.55
2023-03-05T00:54:57.312Z,100096.41
2023-03-05T00:57:27.491Z,100095.42
2023-03-05T00:59:59.522Z,100088.98
2023-03-05T01:02:29.437Z,100087.14
2023-03-05T01:05:01.843Z,100083.41
2023-03-05T01:07:31.111Z,100075.06
2023-03-05T01:10:10.393Z,100075.26
2023-03-05T01:12:43.116Z,100063.65
2023-03-05T01:15:21.592Z,100063.65
2023-03-05T01:17:55.800Z,100058.55
2023-03-05T01:20:29.484Z,100057.36
2023-03-05T01:23:10.341Z,100051.55
2023-03-05T01:25:45.247Z,100048.83
2023-03-05T01:28:14.474Z,100047.98
2023-03-05T01:30:43.241Z,100044.39
2023-03-05T01:33:14.194Z,100041.84
2023-03-05T01:35:53.717Z,100038.61
2023-03-05T01:38:24.805Z,100036.89
2023-03-05T01:40:54.256Z,100034.85
2023-03-05T01:43:31.323Z,100029.90
2023-03-05T01:46:34.330Z,100028.87
2023-03-05T01:49:29.248Z,100023.23
2023-03-05T01:52:17.582Z,100017.59
2023-03-05T01:55:04.875Z,100009.54
2023-03-05T01:57:49.940Z,100006.97
2023-03-05T02:00:47.128Z,100007.14
2023-03-05T02:03:18.054Z,100006.64
2023-03-05T02:05:47.133Z,100004.58
2023-03-05T02:08:22.542Z,100002.35
2023-03-05T02:11:00.229Z,99999.94
2023-03-05T02:13:40.538Z,99999.44
2023-03-05T02:16:13.239Z,100000.80
2023-03-05T02:18:42.325Z,99997.21
2023-03-05T02:21:12.660Z,99993.45
2023-03-05T02:23:44.442Z,99992.94
2023-03-05T02:26:20.703Z,99991.55
2023-03-05T02:29:00.248Z,99987.63
2023-03-05T02:31:34.181Z,99986.25
2023-03-05T02:34:03.189Z,99984.36
2023-03-05T02:36:33.151Z,99983.33
2023-03-05T02:39:02.957Z,99984.35
2023-03-05T02:41:32.156Z,99982.13
2023-03-05T02:44:03.005Z,99977.84
2023-03-05T02:46:32.254Z,99979.21
2023-03-05T02:49:05.884Z,99980.23
2023-03-05T02:51:48.848Z,99977.86
2023-03-05T02:54:31.656Z,99975.80
2023-03-05T02:57:00.734Z,99974.97
2023-03-05T02:59:32.541Z,99974.80
2023-03-05T03:02:07.400Z,99975.48
2023-03-05T03:04:38.844Z,99973.79
2023-03-05T03:07:15.771Z,99972.26
2023-03-05T03:09:48.260Z,99969.52
2023-03-05T03:12:17.018Z,99967.13
2023-03-05T03:14:45.750Z,99964.39
2023-03-05T03:17:18.441Z,99961.99
2023-03-05T03:19:49.973Z,99962.33
2023-03-05T03:22:18.996Z,99954.81
2023-03-05T03:24:47.878Z,99956.00
2023-03-05T03:27:16.872Z,99953.61
2023-03-05T03:29:45.707Z,99947.11
2023-03-05T03:32:16.803Z,99942.67
2023-03-05T03:34:47.842Z,99937.54
2023-03-05T03:37:20.184Z,99936.52
2023-03-05T03:39:48.503Z,99935.30
2023-03-05T03:42:23.720Z,99934.80
2023-03-05T03:44:52.905Z,99931.20
2023-03-05T03:47:27.210Z,99926.08
2023-03-05T03:49:58.725Z,99928.27
2023-03-05T03:52:33.215Z,99926.05
2023-03-05T03:55:06.726Z,99921.27
2023-03-05T03:57:36.569Z,99914.79
2023-03-05T04:00:07.172Z,99914.95
2023-03-05T04:02:40.815Z,99912.23
2023-03-05T04:05:12.711Z,99910.70
2023-03-05T04:07:45.423Z,99899.75
2023-03-05T04:10:20.127Z,99901.46
2023-03-05T04:12:48.947Z,99897.70
2023-03-05T04:15:19.810Z,99888.64
2023-03-05T04:17:52.012Z,99889.67
2023-03-05T04:20:21.111Z,99886.92
2023-03-05T04:22:50.373Z,99882.48
2023-03-05T04:25:21.748Z,99881.45
2023-03-05T04:27:56.801Z,99878.02
2023-03-05T04:30:26.317Z,99869.30
2023-03-05T04:32:57.793Z,99864.50
2023-03-05T04:35:27.672Z,99860.74
2023-03-05T04:37:57.136Z,99857.83
2023-03-05T04:40:30.736Z,99861.77
2023-03-05T04:43:02.340Z,99855.44
2023-03-05T04:45:34.556Z,99851.85
2023-03-05T04:48:03.802Z,99848.27
2023-03-05T04:50:35.101Z,99845.50
2023-03-05T04:53:08.935Z,99846.70
2023-03-05T04:55:40.339Z,99843.27
2023-03-05T04:58:14.265Z,99837.63
2023-03-05T05:00:44.180Z,99841.73
2023-03-05T05:03:13.891Z,99838.98
2023-03-05T05:05:58.761Z,99841.55
2023-03-05T05:08:32.975Z,99838.81
2023-03-05T05:11:05.179Z,99837.62
2023-03-05T05:13:44.597Z,99837.98
2023-03-05T05:16:25.258Z,99830.61
2023-03-05T05:18:59.437Z,99833.17
2023-03-05T05:21:28.461Z,99825.98
2023-03-05T05:23:59.280Z,99826.48
2023-03-05T05:26:31.619Z,99825.10
2023-03-05T05:29:01.792Z,99825.95
2023-03-05T05:31:36.329Z,99823.73
2023-03-05T05:34:08.490Z,99822.36
2023-03-05T05:36:43.295Z,99825.44
2023-03-05T05:39:12.128Z,99825.77
2023-03-05T05:41:40.937Z,99819.28
2023-03-05T05:44:10.474Z,99818.08
2023-03-05T05:46:39.578Z,99819.27
2023-03-05T05:49:11.533Z,99817.05
2023-03-05T05:51:42.211Z,99811.39
2023-03-05T05:54:16.492Z,99813.27
2023-03-05T05:56:47.420Z,99812.23
2023-03-05T05:59:16.501Z,99808.62
2023-03-05T06:01:45.619Z,99805.35
2023-03-05T06:04:13.925Z,99805.35
2023-03-05T06:06:46.269Z,99796.79
2023-03-05T06:09:20.095Z,99797.50
2023-03-05T06:11:51.375Z,99798.02
2023-03-05T06:14:25.846Z,99793.91
2023-03-05T06:17:12.942Z,99792.20
2023-03-05T06:19:43.787Z,99791.50
2023-03-05T06:22:22.290Z,99791.65
2023-03-05T06:24:53.330Z,99787.87
2023-03-05T06:27:30.916Z,99786.48
2023-03-05T06:30:12.699Z,99780.31
2023-03-05T06:33:06.479Z,99778.94
2023-03-05T06:35:42.550Z,99777.23
2023-03-05T06:38:16.772Z,99773.63
2023-03-05T06:40:47.945Z,99771.05
2023-03-05T06:43:22.547Z,99770.69
2023-03-05T06:46:08.762Z,99768.10
2023-03-05T06:48:47.662Z,99767.58
2023-03-05T06:51:30.567Z,99765.83
2023-03-05T06:54:13.723Z,99763.92
2023-03-05T06:56:47.315Z,99763.92
2023-03-05T06:59:19.622Z,99760.46
2023-03-05T07:02:05.554Z,99754.27
2023-03-05T07:04:39.840Z,99751.30
2023-03-05T07:07:08.623Z,99749.89
2023-03-05T07:09:43.834Z,99749.35
2023-03-05T07:12:27.872Z,99751.91
2023-03-05T07:15:11.035Z,99748.16
2023-03-05T07:17:48.611Z,99750.58
2023-03-05T07:20:21.697Z,99749.38
2023-03-05T07:23:04.846Z,99745.46
2023-03-05T07:25:45.432Z,99744.77
2023-03-05T07:28:19.680Z,99743.91
2023-03-05T07:31:02.639Z,99740.30
2023-03-05T07:33:42.165Z,99734.48
2023-03-05T07:36:14.508Z,99735.98
2023-03-05T07:38:46.638Z,99736.14
2023-03-05T07:41:24.586Z,99729.27
2023-03-05T07:43:57.039Z,99732.00
2023-03-05T07:46:33.085Z,99730.28
2023-03-05T07:49:02.216Z,99728.56
2023-03-05T07:51:34.942Z,99723.58
2023-03-05T07:54:07.157Z,99720.60
2023-03-05T07:56:55.768Z,99717.10
2023-03-05T07:59:32.065Z,99719.13
2023-03-05T08:02:06.027Z,99721.18
2023-03-05T08:04:38.486Z,99720.98
2023-03-05T08:07:16.870Z,99719.09
2023-03-05T08:10:09.198Z,99718.41
2023-03-05T08:13:02.071Z,99718.57
2023-03-05T08:15:46.810Z,99716.48
2023-03-05T08:18:18.945Z,99710.64
2023-03-05T08:20:48.465Z,99708.27
2023-03-05T08:23:25.058Z,99709.50
2023-03-05T08:25:54.973Z,99707.23
2023-03-05T08:28:26.126Z,99702.27
2023-03-05T08:30:58.487Z,99700.51
2023-03-05T08:33:33.838Z,99698.14
2023-03-05T08:36:13.754Z,99695.52
2023-03-05T08:38:53.297Z,99687.61
2023-03-05T08:41:23.365Z,99684.59
2023-03-05T08:43:59.794Z,99682.22
2023-03-05T08:46:31.767Z,99679.37
2023-03-05T08:49:07.001Z,99677.95
2023-03-05T08:51:36.223Z,99672.88
2023-03-05T08:54:10.590Z,99671.89
2023-03-05T08:56:41.885Z,99666.31
2023-03-05T08:59:14.358Z,99668.92
2023-03-05T09:01:53.820Z,99667.05
2023-03-05T09:04:25.627Z,99667.96
2023-03-05T09:07:05.521Z,99670.98
2023-03-05T09:09:43.087Z,99670.55
2023-03-05T09:12:20.210Z,99669.58
2023-03-05T09:15:05.075Z,99676.38
2023-03-05T09:17:44.520Z,99680.98
2023-03-05T09:20:20.976Z,99684.25
2023-03-05T09:22:58.568Z,99688.18
2023-03-05T09:25:34.285Z,99686.42
2023-03-05T09:28:06.752Z,99690.67
2023-03-05T09:30:45.593Z,99688.46
2023-03-05T09:33:14.851Z,99684.75
2023-03-05T09:35:48.730Z,99684.27
2023-03-05T09:38:29.039Z,99686.16
2023-03-05T09:41:17.663Z,99687.04
2023-03-05T09:44:58.109Z,99688.44
2023-03-05T09:47:49.742Z,99682.46
2023-03-05T09:50:36.264Z,99685.91
2023-03-05T09:53:28.546Z,99686.55
2023-03-05T09:56:12.352Z,99688.02
2023-03-05T09:58:51.236Z,99686.13
2023-03-05T10:01:41.632Z,99687.50
2023-03-05T10:04:25.238Z,99684.79
2023-03-05T10:07:08.857Z,99684.93
2023-03-05T10:09:55.921Z,99682.31
2023-03-05T10:12:52.987Z,99678.81
2023-03-05T10:16:27.609Z,99680.29
2023-03-05T10:19:25.656Z,99675.65
2023-03-05T10:23:08.600Z,99677.02
2023-03-05T10:26:04.105Z,99675.98
2023-03-05T10:28:56.958Z,99673.58
2023-03-05T10:31:52.782Z,99672.39
2023-03-05T10:35:07.488Z,99668.48
2023-03-05T10:37:55.093Z,99661.81
2023-03-05T10:40:51.748Z,99658.71
2023-03-05T10:44:15.429Z,99658.80
2023-03-05T10:47:52.106Z,99653.95
2023-03-05T10:50:28.169Z,99649.92
2023-03-05T10:53:56.488Z,99648.75
2023-03-05T10:56:29.279Z,99651.08
2023-03-05T10:59:03.436Z,99649.02
2023-03-05T11:01:37.678Z,99649.05
2023-03-05T11:04:57.765Z,99646.80
2023-03-05T11:07:41.052Z,99647.44
2023-03-05T11:10:23.408Z,99643.26
2023-03-05T11:12:56.182Z,99642.16
2023-03-05T11:15:30.996Z,99639.64
2023-03-05T11:18:21.906Z,99642.59
2023-03-05T11:20:51.459Z,99635.98
2023-03-05T11:23:28.360Z,99635.54
2023-03-05T11:26:11.874Z,99636.80
2023-03-05T11:28:56.383Z,99636.98
2023-03-05T11:31:34.505Z,99632.21
2023-03-05T11:34:20.507Z,99632.01
2023-03-05T11:37:00.596Z,99632.27
2023-03-05T11:39:38.079Z,99630.98
2023-03-05T11:42:16.377Z,99625.05
2023-03-05T11:44:56.023Z,99626.48
2023-03-05T11:47:48.346Z,99623.41
2023-03-05T11:50:34.206Z,99621.91
2023-03-05T11:53:20.656Z,99616.95
2023-03-05T11:56:10.215Z,99613.23
2023-03-05T11:58:48.412Z,99608.59
2023-03-05T12:01:27.294Z,99606.94
2023-03-05T12:04:08.083Z,99604.98
2023-03-05T12:07:02.333Z,99603.78
2023-03-05T12:09:54.370Z,99601.61
2023-03-05T12:12:30.490Z,99600.25
2023-03-05T12:15:18.225Z,99595.14
2023-03-05T12:18:20.154Z,99595.27
2023-03-05T12:21:27.721Z,99595.00
2023-03-05T12:24:01.321Z,99592.05
2023-03-05T12:27:14.757Z,99588.70
2023-03-05T12:29:52.298Z,99588.89
2023-03-05T12:32:33.788Z,99582.40
2023-03-05T12:35:32.663Z,99584.30
2023-03-05T12:38:32.830Z,99585.58
2023-03-05T12:41:37.231Z,99588.42
2023-03-05T12:44:10.637Z,99580.64
2023-03-05T12:46:53.666Z,99585.35
2023-03-05T12:49:29.279Z,99582.87
2023-03-05T12:52:01.439Z,99580.63
2023-03-05T12:54:36.124Z,99583.92
2023-03-05T12:57:29.280Z,99584.16
2023-03-05T13:00:33.386Z,99579.31
2023-03-05T13:03:23.301Z,99575.14
2023-03-05T13:06:05.456Z,99570.08
2023-03-05T13:08:50.487Z,99566.52
2023-03-05T13:11:37.159Z,99563.31
2023-03-05T13:14:44.322Z,99564.45
2023-03-05T13:17:31.692Z,99570.86
2023-03-05T13:20:27.447Z,99569.98
2023-03-05T13:23:34.033Z,99566.52
2023-03-05T13:26:23.522Z,99572.45
2023-03-05T13:29:05.408Z,99573.95
2023-03-05T13:31:57.744Z,99574.38
2023-03-05T13:34:47.110Z,99575.77
2023-03-05T13:37:34.358Z,99576.35
2023-03-05T13:40:22.324Z,99571.34
2023-03-05T13:43:13.638Z,99574.41
2023-03-05T13:45:56.789Z,99573.06
2023-03-05T13:48:37.635Z,99574.68
2023-03-05T13:51:11.699Z,99574.95
2023-03-05T13:53:43.332Z,99574.34
2023-03-05T13:56:25.136Z,99576.31
2023-03-05T13:59:00.618Z,99572.80
2023-03-05T14:01:42.205Z,99575.75
2023-03-05T14:04:14.187Z,99575.66
2023-03-05T14:07:32.668Z,99575.69
2023-03-05T14:10:05.340Z,99567.38
2023-03-05T14:12:43.146Z,99565.52
2023-03-05T14:15:30.883Z,99561.77
2023-03-05T14:18:19.124Z,99562.30
2023-03-05T14:21:10.308Z,99561.66
2023-03-05T14:23:51.290Z,99561.98
2023-03-05T14:26:34.854Z,99558.56
2023-03-05T14:29:19.497Z,99560.36
2023-03-05T14:32:19.607Z,99558.95
2023-03-05T14:37:49.106Z,99560.27
2023-03-05T14:40:28.139Z,99558.30
2023-03-05T14:43:03.819Z,99548.58
2023-03-05T14:45:42.836Z,99548.48
2023-03-05T14:48:20.100Z,99546.52
2023-03-05T14:51:03.830Z,99552.06
2023-03-05T14:53:47.774Z,99557.02
2023-03-05T14:56:33.847Z,99562.48
2023-03-05T14:59:30.050Z,99568.88
2023-03-05T15:02:13.930Z,99573.91
2023-03-05T15:04:48.686Z,99578.73
2023-03-05T15:07:23.756Z,99580.59
2023-03-05T15:10:04.756Z,99589.21
2023-03-05T15:12:38.573Z,99590.30
2023-03-05T15:15:15.237Z,99594.73
2023-03-05T15:17:47.603Z,99597.59
2023-03-05T15:20:25.646Z,99599.05
2023-03-05T15:22:58.171Z,99599.49
2023-03-05T15:25:33.069Z,99594.59
2023-03-05T15:28:04.795Z,99587.05
2023-03-05T15:30:40.414Z,99582.52
2023-03-05T15:33:34.059Z,99577.44
2023-03-05T15:36:09.432Z,99575.05
2023-03-05T15:38:46.282Z,99572.64
2023-03-05T15:41:27.065Z,99570.92
2023-03-05T15:44:01.884Z,99567.68
2023-03-05T15:46:34.793Z,99564.09
2023-03-05T15:49:15.603Z,99562.89
2023-03-05T15:51:52.599Z,99560.48
2023-03-05T15:54:23.172Z,99563.38
2023-03-05T15:56:52.387Z,99564.20
2023-03-05T15:59:28.199Z,99560.55
2023-03-05T16:02:01.234Z,99560.52
2023-03-05T16:04:38.022Z,99564.96
2023-03-05T16:07:08.233Z,99570.96
2023-03-05T16:09:43.271Z,99575.09
2023-03-05T16:12:22.562Z,99569.66
2023-03-05T16:14:59.255Z,99566.63
2023-03-05T16:17:32.387Z,99559.46
2023-03-05T16:20:06.671Z,99555.90
2023-03-05T16:22:45.615Z,99558.34
2023-03-05T16:25:30.772Z,99560.42
2023-03-05T16:28:15.200Z,99564.38
2023-03-05T16:31:03.088Z,99570.73
2023-03-05T16:33:42.132Z,99570.60
2023-03-05T16:36:16.834Z,99566.50
2023-03-05T16:38:49.079Z,99564.60
2023-03-05T16:41:33.268Z,99559.78
2023-03-05T16:44:04.499Z,99565.05
2023-03-05T16:46:41.026Z,99562.96
2023-03-05T16:49:16.403Z,99567.05
2023-03-05T16:51:52.005Z,99570.81
2023-03-05T16:54:24.287Z,99575.13
2023-03-05T16:59:56.644Z,99582.73
2023-03-05T17:02:32.036Z,99576.08
2023-03-05T17:05:12.650Z,99574.23
2023-03-05T17:07:46.770Z,99573.89
2023-03-05T17:10:22.545Z,99581.20
2023-03-05T17:13:05.580Z,99578.13
2023-03-05T17:15:35.032Z,99577.10
2023-03-05T17:18:12.061Z,99570.44
2023-03-05T17:20:43.228Z,99571.30
2023-03-05T17:23:16.429Z,99580.70
2023-03-05T17:25:47.458Z,99582.08
2023-03-05T17:28:16.688Z,99582.07
2023-03-05T17:30:48.807Z,99578.27
2023-03-05T17:33:20.134Z,99578.26
2023-03-05T17:35:48.866Z,99570.05
2023-03-05T17:38:18.063Z,99567.98
2023-03-05T17:40:46.565Z,99574.16
2023-03-05T17:43:17.572Z,99567.83
2023-03-05T17:46:00.408Z,99564.91
2023-03-05T17:48:29.379Z,99567.80
2023-03-05T17:51:07.062Z,99569.17
2023-03-05T17:53:44.290Z,99566.24
2023-03-05T17:56:21.619Z,99563.15
2023-03-05T17:59:00.080Z,99559.71
2023-03-05T18:01:36.190Z,99555.27
2023-03-05T18:04:13.287Z,99557.15
2023-03-05T18:06:43.044Z,99553.23
2023-03-05T18:09:31.123Z,99548.45
2023-03-05T18:12:08.565Z,99542.13
2023-03-05T18:15:05.465Z,99532.56
2023-03-05T18:17:39.013Z,99523.52
2023-03-05T18:20:27.139Z,99530.21
2023-03-05T18:22:58.389Z,99547.19
2023-03-05T18:25:33.713Z,99560.23
2023-03-05T18:28:14.647Z,99565.57
2023-03-05T18:30:55.273Z,99559.80
2023-03-05T18:33:30.307Z,99549.56
2023-03-05T18:36:07.714Z,99548.72
2023-03-05T18:38:47.273Z,99558.32
2023-03-05T18:41:28.317Z,99557.65
2023-03-05T18:43:58.443Z,99555.94
2023-03-05T18:46:38.426Z,99553.54
2023-03-05T18:49:17.503Z,99556.30
2023-03-05T18:51:54.611Z,99562.84
2023-03-05T18:58:19.670Z,99563.95
2023-03-05T19:00:54.592Z,99563.79
2023-03-05T19:03:48.868Z,99562.05
2023-03-05T19:06:37.542Z,99557.92
2023-03-05T19:09:26.828Z,99552.11
2023-03-05T19:11:58.255Z,99551.45
2023-03-05T19:14:29.112Z,99555.23
2023-03-05T19:17:00.806Z,99555.92
2023-03-05T19:19:42.327Z,99559.84
2023-03-05T19:22:25.224Z,99558.29
2023-03-05T19:24:56.277Z,99558.13
2023-03-05T19:27:27.951Z,99556.26
2023-03-05T19:30:03.807Z,99555.91
2023-03-05T19:32:39.811Z,99558.15
2023-03-05T19:35:15.816Z,99553.89
2023-03-05T19:37:55.150Z,99553.91
2023-03-05T19:40:30.087Z,99551.90
2023-03-05T19:43:07.564Z,99548.49
2023-03-05T19:45:38.013Z,99548.02
2023-03-05T19:48:24.254Z,99544.81
2023-03-05T19:51:03.711Z,99545.52
2023-03-05T19:54:09.638Z,99545.43
2023-03-05T19:56:45.538Z,99547.52
2023-03-05T19:59:27.835Z,99548.05
2023-03-05T20:02:06.519Z,99542.75
2023-03-05T20:04:41.814Z,99541.23
2023-03-05T20:07:12.666Z,99540.03
2023-03-05T20:10:01.959Z,99542.61
2023-03-05T20:12:51.178Z,99540.75
2023-03-05T20:15:52.783Z,99535.46
2023-03-05T20:18:31.803Z,99537.02
2023-03-05T20:21:14.162Z,99537.35
2023-03-05T20:24:04.758Z,99534.95
2023-03-05T20:26:43.172Z,99537.54
2023-03-05T20:29:17.643Z,99537.20
2023-03-05T20:31:58.775Z,99537.20
2023-03-05T20:34:29.932Z,99533.63
2023-03-05T20:37:12.260Z,99528.15
2023-03-05T20:39:45.934Z,99527.30
2023-03-05T20:42:25.554Z,99529.52
2023-03-05T20:44:55.909Z,99527.98
2023-03-05T20:47:40.832Z,99527.11
2023-03-05T20:50:11.368Z,99531.39
2023-03-05T20:52:41.134Z,99535.66
2023-03-05T20:55:11.528Z,99535.65
2023-03-05T20:57:46.402Z,99537.17
2023-03-05T21:00:25.205Z,99535.98
2023-03-05T21:03:07.898Z,99535.84
2023-03-05T21:05:48.045Z,99533.97
2023-03-05T21:08:25.307Z,99533.81
2023-03-05T21:10:56.294Z,99530.73
2023-03-05T21:13:30.696Z,99527.67
2023-03-05T21:16:14.741Z,99524.77
2023-03-05T21:18:58.156Z,99521.36
2023-03-05T21:21:38.658Z,99519.49
2023-03-05T21:24:12.373Z,99523.77
2023-03-05T21:26:41.583Z,99527.70
2023-03-05T21:29:21.557Z,99526.33
2023-03-05T21:31:50.239Z,99526.16
2023-03-05T21:34:20.393Z,99529.08
2023-03-05T21:36:54.301Z,99529.08
2023-03-05T21:39:35.885Z,99529.60
2023-03-05T21:42:15.815Z,99526.88
2023-03-05T21:45:07.594Z,99523.14
2023-03-05T21:47:43.699Z,99521.95
2023-03-05T21:50:20.243Z,99524.18
2023-03-05T21:52:49.945Z,99524.53
2023-03-05T21:55:31.904Z,99521.45
2023-03-05T21:58:00.685Z,99520.79
2023-03-05T22:00:31.939Z,99518.39
2023-03-05T22:03:00.627Z,99515.49
2023-03-05T22:05:31.653Z,99517.55
2023-03-05T22:08:02.074Z,99514.14
2023-03-05T22:10:33.522Z,99514.84
2023-03-05T22:13:05.386Z,99514.84
2023-03-05T22:15:40.305Z,99516.23
2023-03-05T22:18:09.052Z,99517.77
2023-03-05T22:20:37.640Z,99512.30
2023-03-05T22:23:09.531Z,99508.87
2023-03-05T22:25:41.037Z,99506.65
2023-03-05T22:28:13.381Z,99504.98
2023-03-05T22:30:45.846Z,99500.54
2023-03-05T22:33:22.029Z,99501.55
2023-03-05T22:35:56.178Z,99505.29
2023-03-05T22:38:25.450Z,99499.12
2023-03-05T22:40:57.301Z,99495.01
2023-03-05T22:43:25.833Z,99489.36
2023-03-05T22:45:53.985Z,99490.71
2023-03-05T22:48:22.466Z,99492.91
2023-03-05T22:50:55.875Z,99489.81
2023-03-05T22:53:24.571Z,99490.32
2023-03-05T22:56:00.175Z,99486.73
2023-03-05T22:58:28.520Z,99485.02
2023-03-05T23:00:56.714Z,99484.32
2023-03-05T23:03:25.390Z,99482.26
2023-03-05T23:05:56.818Z,99484.63
2023-03-05T23:08:37.470Z,99484.29
2023-03-05T23:11:12.290Z,99484.79
2023-03-05T23:13:45.309Z,99479.83
2023-03-05T23:16:16.719Z,99474.52
2023-03-05T23:18:51.924Z,99473.48
2023-03-05T23:21:23.497Z,99473.31
2023-03-05T23:23:55.618Z,99476.56
2023-03-05T23:26:38.065Z,99477.41
2023-03-05T23:29:12.129Z,99479.81
2023-03-05T23:31:44.397Z,99480.48
2023-03-05T23:34:15.606Z,99481.00
2023-03-05T23:36:50.045Z,99479.64
2023-03-05T23:39:20.116Z,99481.51
2023-03-05T23:41:54.437Z,99480.66
2023-03-05T23:44:32.106Z,99477.09
2023-03-05T23:47:01.363Z,99477.09
2023-03-05T23:49:38.375Z,99476.25
2023-03-05T23:52:07.489Z,99477.13
2023-03-05T23:54:36.073Z,99475.25
2023-03-05T23:57:13.154Z,99475.42
2023-03-05T23:59:41.776Z,99477.15
